Terminal Aerodrome Forecast
Issued by NWS

Home | Current Version | Previous Version | Text Only | Print | Product List | Glossary Off
Versions: 1 2 3 4 5 6 7 8 9 10 11 12 13 14 15 16

259
FTUS42 KMHX 051029 AAA
TAFOAJ
TAF AMD
KOAJ 051029Z 0510/0606 35011G20KT P6SM VCSH SCT007 OVC015
     FM051400 34011G20KT P6SM OVC019
     FM051600 32011G19KT P6SM SCT035
     FM052230 00000KT P6SM SKC
      AMD LTD TO CLD VIS AND WIND=

USA.gov is the U.S. government's official web portal to all federal, state and local government web resources and services.